createdAt,value
2024-01-09T00:00:22.841Z,0
2024-01-09T00:01:37.136Z,0
2024-01-09T00:02:51.431Z,0
2024-01-09T00:04:05.727Z,0
2024-01-09T00:05:20.021Z,0
2024-01-09T00:06:34.316Z,0
2024-01-09T00:07:48.611Z,0
2024-01-09T00:09:02.906Z,0
2024-01-09T00:10:17.201Z,0
2024-01-09T00:11:31.496Z,0
2024-01-09T00:12:45.791Z,0
2024-01-09T00:14:00.086Z,0
2024-01-09T00:15:14.381Z,0
2024-01-09T00:16:27.692Z,0
2024-01-09T00:17:41.987Z,0
2024-01-09T00:18:56.282Z,0
2024-01-09T00:20:10.577Z,0
2024-01-09T00:21:24.872Z,0
2024-01-09T00:22:39.165Z,0
2024-01-09T00:23:53.462Z,0
2024-01-09T00:25:07.757Z,0
2024-01-09T00:26:22.052Z,0
2024-01-09T00:27:36.347Z,0
2024-01-09T00:28:50.642Z,0
2024-01-09T00:30:04.937Z,0
2024-01-09T00:31:19.232Z,0
2024-01-09T00:32:32.543Z,0
2024-01-09T00:33:46.838Z,0
2024-01-09T00:35:01.133Z,0
2024-01-09T00:36:15.428Z,0
2024-01-09T00:37:29.723Z,0
2024-01-09T00:38:44.018Z,0
2024-01-09T00:39:58.313Z,0
2024-01-09T00:41:12.608Z,0
2024-01-09T00:42:26.903Z,0
2024-01-09T00:43:41.198Z,0
2024-01-09T00:44:55.493Z,0
2024-01-09T00:46:09.789Z,0
2024-01-09T00:47:24.084Z,0
2024-01-09T00:48:38.379Z,0
2024-01-09T00:49:51.690Z,0
2024-01-09T00:51:05.985Z,0
2024-01-09T00:52:20.279Z,0
2024-01-09T00:53:34.574Z,0
2024-01-09T00:54:48.869Z,0
2024-01-09T00:56:03.164Z,0
2024-01-09T00:57:17.460Z,0
2024-01-09T00:58:31.755Z,0
2024-01-09T00:59:46.050Z,0
2024-01-09T01:01:00.345Z,0
2024-01-09T01:02:14.640Z,0
2024-01-09T01:03:28.935Z,0
2024-01-09T01:04:43.230Z,0
2024-01-09T01:05:56.541Z,0
2024-01-09T01:07:10.827Z,0
2024-01-09T01:08:25.131Z,0
2024-01-09T01:09:39.426Z,0
2024-01-09T01:10:53.721Z,0
2024-01-09T01:12:07.037Z,0
2024-01-09T01:13:21.333Z,0
2024-01-09T01:14:35.628Z,0
2024-01-09T01:15:49.922Z,0
2024-01-09T01:17:04.217Z,0
2024-01-09T01:18:18.512Z,0
2024-01-09T01:19:32.808Z,0
2024-01-09T01:20:47.103Z,0
2024-01-09T01:22:01.398Z,0
2024-01-09T01:23:15.693Z,0
2024-01-09T01:24:29.988Z,0
2024-01-09T01:25:44.283Z,0
2024-01-09T01:26:58.578Z,0
2024-01-09T01:28:11.889Z,0
2024-01-09T01:29:26.184Z,0
2024-01-09T01:30:40.480Z,0
2024-01-09T01:31:54.775Z,0
2024-01-09T01:33:09.070Z,0
2024-01-09T01:34:23.345Z,0
2024-01-09T01:35:37.660Z,0
2024-01-09T01:36:51.955Z,0
2024-01-09T01:38:06.250Z,0
2024-01-09T01:39:20.545Z,0
2024-01-09T01:40:34.840Z,0
2024-01-09T01:43:03.430Z,0
2024-01-09T01:44:16.741Z,0
2024-01-09T01:45:31.036Z,0
2024-01-09T01:46:45.320Z,0
2024-01-09T01:47:59.626Z,0
2024-01-09T01:49:13.921Z,0
2024-01-09T01:50:28.216Z,0
2024-01-09T01:52:56.807Z,0
2024-01-09T01:54:11.102Z,0
2024-01-09T01:55:25.397Z,0
2024-01-09T01:56:39.692Z,0
2024-01-09T01:57:53.987Z,0
2024-01-09T01:59:08.282Z,0
2024-01-09T02:00:21.593Z,0
2024-01-09T02:01:35.888Z,0
2024-01-09T02:02:50.183Z,0
2024-01-09T02:04:04.478Z,0
2024-01-09T02:05:18.773Z,0
2024-01-09T02:06:33.068Z,0
2024-01-09T02:07:47.363Z,0
2024-01-09T02:09:01.658Z,0
2024-01-09T02:10:15.953Z,0
2024-01-09T02:11:30.248Z,0
2024-01-09T02:12:44.544Z,0
2024-01-09T02:13:58.839Z,0
2024-01-09T02:15:13.134Z,0
2024-01-09T02:16:26.445Z,0
2024-01-09T02:17:40.740Z,0
2024-01-09T02:18:55.035Z,0
2024-01-09T02:20:09.330Z,0
2024-01-09T02:21:23.625Z,0
2024-01-09T02:22:37.920Z,0
2024-01-09T02:23:52.216Z,0
2024-01-09T02:25:06.511Z,0
2024-01-09T02:26:20.806Z,0
2024-01-09T02:27:35.101Z,0
2024-01-09T02:28:49.378Z,0
2024-01-09T02:30:03.691Z,0
2024-01-09T02:31:17.986Z,0
2024-01-09T02:32:31.297Z,0
2024-01-09T02:33:45.592Z,0
2024-01-09T02:34:59.888Z,0
2024-01-09T02:36:14.183Z,0
2024-01-09T02:37:28.458Z,0
2024-01-09T02:38:42.773Z,0
2024-01-09T02:39:57.068Z,0
2024-01-09T02:41:11.364Z,0
2024-01-09T02:42:25.659Z,0
2024-01-09T02:43:39.945Z,0
2024-01-09T02:44:54.249Z,0
2024-01-09T02:46:08.544Z,0
2024-01-09T02:47:22.840Z,0
2024-01-09T02:48:36.151Z,0
2024-01-09T02:49:50.446Z,0
2024-01-09T02:51:04.741Z,0
2024-01-09T02:52:19.036Z,0
2024-01-09T02:53:33.331Z,0
2024-01-09T02:54:47.626Z,0
2024-01-09T02:56:01.922Z,0
2024-01-09T02:57:16.217Z,0
2024-01-09T02:58:30.512Z,0
2024-01-09T02:59:44.808Z,0
2024-01-09T03:00:59.103Z,0
2024-01-09T03:02:13.398Z,0
2024-01-09T03:03:27.693Z,0
2024-01-09T03:04:41.004Z,0
2024-01-09T03:05:55.284Z,0
2024-01-09T03:07:09.595Z,0
2024-01-09T03:08:23.890Z,0
2024-01-09T03:09:38.185Z,0
2024-01-09T03:10:52.480Z,0
2024-01-09T03:12:06.775Z,0
2024-01-09T03:13:21.071Z,0
2024-01-09T03:14:35.366Z,0
2024-01-09T03:15:49.661Z,0
2024-01-09T03:17:03.956Z,0
2024-01-09T03:18:18.252Z,0
2024-01-09T03:19:32.547Z,0
2024-01-09T03:20:45.850Z,0
2024-01-09T03:22:00.153Z,0
2024-01-09T03:23:14.449Z,0
2024-01-09T03:24:28.744Z,0
2024-01-09T03:25:43.039Z,0
2024-01-09T03:26:57.335Z,0
2024-01-09T03:28:11.630Z,0
2024-01-09T03:29:25.925Z,0
2024-01-09T03:30:40.220Z,0
2024-01-09T03:31:54.516Z,0
2024-01-09T03:33:08.811Z,0
2024-01-09T03:34:23.106Z,0
2024-01-09T03:35:37.401Z,0
2024-01-09T03:36:50.712Z,0
2024-01-09T03:38:05.007Z,0
2024-01-09T03:39:19.303Z,0
2024-01-09T03:40:33.598Z,0
2024-01-09T03:41:47.893Z,0
2024-01-09T03:43:02.188Z,0
2024-01-09T03:44:16.483Z,0
2024-01-09T03:45:30.778Z,0
2024-01-09T03:46:45.074Z,0
2024-01-09T03:47:59.369Z,0
2024-01-09T03:49:13.664Z,0
2024-01-09T03:50:27.959Z,0
2024-01-09T03:51:42.255Z,0
2024-01-09T03:52:55.566Z,0
2024-01-09T03:54:09.861Z,0
2024-01-09T03:55:24.156Z,0
2024-01-09T03:56:38.451Z,0
2024-01-09T03:57:52.746Z,0
2024-01-09T03:59:07.042Z,0
2024-01-09T04:00:21.337Z,0
2024-01-09T04:01:35.632Z,0
2024-01-09T04:02:49.927Z,0
2024-01-09T04:04:04.223Z,0
2024-01-09T04:05:18.518Z,0
2024-01-09T04:06:32.813Z,0
2024-01-09T04:07:47.108Z,0
2024-01-09T04:09:00.419Z,0
2024-01-09T04:10:14.714Z,0
2024-01-09T04:11:29.010Z,0
2024-01-09T04:12:43.305Z,0
2024-01-09T04:13:57.600Z,0
2024-01-09T04:15:11.895Z,0
2024-01-09T04:16:26.191Z,0
2024-01-09T04:17:40.486Z,0
2024-01-09T04:18:54.781Z,0
2024-01-09T04:20:09.076Z,0
2024-01-09T04:21:23.372Z,0
2024-01-09T04:22:37.667Z,0
2024-01-09T04:23:51.962Z,0
2024-01-09T04:25:05.273Z,0
2024-01-09T04:26:19.568Z,0
2024-01-09T04:27:33.864Z,0
2024-01-09T04:28:48.159Z,0
2024-01-09T04:30:02.454Z,0
2024-01-09T04:31:16.749Z,0
2024-01-09T04:32:31.045Z,0
2024-01-09T04:33:45.340Z,0
2024-01-09T04:34:59.635Z,0
2024-01-09T04:36:13.930Z,0
2024-01-09T04:37:28.225Z,0
2024-01-09T04:38:42.521Z,0
2024-01-09T04:39:56.816Z,0
2024-01-09T04:41:10.127Z,0
2024-01-09T04:42:24.422Z,0
2024-01-09T04:43:38.718Z,0
2024-01-09T04:44:53.013Z,0
2024-01-09T04:46:07.308Z,0
2024-01-09T04:47:21.603Z,0
2024-01-09T04:48:35.898Z,0
2024-01-09T04:49:50.194Z,0
2024-01-09T04:51:04.489Z,0
2024-01-09T04:52:18.784Z,0
2024-01-09T04:53:33.080Z,0
2024-01-09T04:54:47.375Z,0
2024-01-09T04:56:01.670Z,0
2024-01-09T04:57:14.981Z,0
2024-01-09T04:58:29.276Z,0
2024-01-09T04:59:43.571Z,0
2024-01-09T05:00:57.867Z,0
2024-01-09T05:02:12.162Z,0
2024-01-09T05:03:26.457Z,0
2024-01-09T05:04:40.753Z,0
2024-01-09T05:05:55.048Z,0
2024-01-09T05:07:09.343Z,0
2024-01-09T05:08:23.638Z,0
2024-01-09T05:09:37.933Z,0
2024-01-09T05:10:52.229Z,0
2024-01-09T05:12:06.524Z,0
2024-01-09T05:13:19.835Z,0
2024-01-09T05:14:34.130Z,0
2024-01-09T05:15:48.426Z,0
2024-01-09T05:17:02.709Z,0
2024-01-09T05:18:17.016Z,0
2024-01-09T05:19:31.311Z,0
2024-01-09T05:20:44.628Z,0
2024-01-09T05:21:58.923Z,0
2024-01-09T05:23:13.218Z,0
2024-01-09T05:24:27.513Z,0
2024-01-09T05:25:41.809Z,0
2024-01-09T05:26:56.104Z,0
2024-01-09T05:28:10.399Z,0
2024-01-09T05:29:24.695Z,0
2024-01-09T05:30:38.990Z,0
2024-01-09T05:31:53.285Z,0
2024-01-09T05:33:07.580Z,0
2024-01-09T05:34:21.875Z,0
2024-01-09T05:35:36.171Z,0
2024-01-09T05:36:49.482Z,0
2024-01-09T05:38:03.777Z,0
2024-01-09T05:39:18.073Z,0
2024-01-09T05:40:32.368Z,0
2024-01-09T05:41:46.663Z,0
2024-01-09T05:43:00.958Z,0
2024-01-09T05:44:15.254Z,0
2024-01-09T05:45:29.549Z,0
2024-01-09T05:46:43.844Z,0
2024-01-09T05:47:58.140Z,0
2024-01-09T05:49:12.435Z,0
2024-01-09T05:50:26.730Z,0
2024-01-09T05:51:41.026Z,0
2024-01-09T05:52:54.337Z,0
2024-01-09T05:54:08.633Z,0
2024-01-09T05:55:22.928Z,0
2024-01-09T05:57:51.518Z,0
2024-01-09T05:59:05.814Z,0
2024-01-09T06:00:20.109Z,0
2024-01-09T06:01:34.391Z,0
2024-01-09T06:02:48.700Z,0
2024-01-09T06:04:02.995Z,0
2024-01-09T06:05:17.290Z,0
2024-01-09T06:06:31.585Z,0
2024-01-09T06:07:45.881Z,0
2024-01-09T06:08:59.192Z,0
2024-01-09T06:10:13.487Z,0
2024-01-09T06:11:27.783Z,0
2024-01-09T06:12:42.078Z,0
2024-01-09T06:13:56.373Z,0
2024-01-09T06:15:10.668Z,0
2024-01-09T06:16:24.963Z,0
2024-01-09T06:17:39.259Z,0
2024-01-09T06:18:53.554Z,0
2024-01-09T06:20:07.849Z,0
2024-01-09T06:21:22.145Z,0
2024-01-09T06:22:36.440Z,0
2024-01-09T06:23:50.735Z,0
2024-01-09T06:25:04.046Z,0
2024-01-09T06:26:18.342Z,0
2024-01-09T06:27:32.638Z,0
2024-01-09T06:28:46.879Z,1
2024-01-09T06:30:01.175Z,0
2024-01-09T06:31:15.470Z,0
2024-01-09T06:32:29.723Z,1
2024-01-09T06:33:43.964Z,1
2024-01-09T06:34:58.260Z,0
2024-01-09T06:36:12.555Z,0
2024-01-09T06:37:26.851Z,0
2024-01-09T06:38:41.146Z,0
2024-01-09T06:39:55.442Z,0
2024-01-09T06:41:08.754Z,0
2024-01-09T06:42:23.006Z,4
2024-01-09T06:43:37.247Z,2
2024-01-09T06:44:51.489Z,1
2024-01-09T06:46:05.730Z,1
2024-01-09T06:47:19.971Z,2
2024-01-09T06:48:34.212Z,3
2024-01-09T06:49:48.453Z,3
2024-01-09T06:51:02.695Z,3
2024-01-09T06:52:16.936Z,4
2024-01-09T06:53:31.177Z,5
2024-01-09T06:54:45.419Z,6
2024-01-09T06:55:59.659Z,6
2024-01-09T06:57:12.917Z,7
2024-01-09T06:58:27.158Z,8
2024-01-09T06:59:41.399Z,10
2024-01-09T07:00:55.640Z,13
2024-01-09T07:02:09.882Z,15
2024-01-09T07:03:24.123Z,21
2024-01-09T07:04:38.364Z,27
2024-01-09T07:05:52.606Z,27
2024-01-09T07:07:06.847Z,29
2024-01-09T07:08:21.088Z,37
2024-01-09T07:09:35.330Z,40
2024-01-09T07:10:49.572Z,50
2024-01-09T07:12:03.813Z,55
2024-01-09T07:13:17.070Z,60
2024-01-09T07:14:31.312Z,66
2024-01-09T07:15:45.553Z,71
2024-01-09T07:16:59.794Z,79
2024-01-09T07:18:14.035Z,82
2024-01-09T07:19:28.277Z,86
2024-01-09T07:20:42.518Z,94
2024-01-09T07:21:56.759Z,105
2024-01-09T07:23:11.000Z,113
2024-01-09T07:24:25.242Z,112
2024-01-09T07:25:39.483Z,117
2024-01-09T07:26:53.724Z,119
2024-01-09T07:28:07.965Z,123
2024-01-09T07:29:21.223Z,120
2024-01-09T07:30:35.464Z,152
2024-01-09T07:31:49.705Z,163
2024-01-09T07:33:03.946Z,169
2024-01-09T07:34:18.187Z,197
2024-01-09T07:35:32.429Z,205
2024-01-09T07:36:46.670Z,214
2024-01-09T07:38:00.911Z,224
2024-01-09T07:39:15.153Z,224
2024-01-09T07:40:29.394Z,253
2024-01-09T07:41:43.635Z,280
2024-01-09T07:42:57.876Z,302
2024-01-09T07:44:12.118Z,305
2024-01-09T07:45:25.375Z,332
2024-01-09T07:46:39.616Z,340
2024-01-09T07:47:53.858Z,362
2024-01-09T07:49:08.099Z,373
2024-01-09T07:50:22.340Z,386
2024-01-09T07:51:36.581Z,412
2024-01-09T07:52:50.823Z,443
2024-01-09T07:54:05.064Z,478
2024-01-09T07:55:19.305Z,462
2024-01-09T07:56:33.529Z,507
2024-01-09T07:57:47.788Z,519
2024-01-09T07:59:02.030Z,546
2024-01-09T08:00:16.255Z,538
2024-01-09T08:01:29.528Z,578
2024-01-09T08:02:43.770Z,645
2024-01-09T08:03:58.011Z,641
2024-01-09T08:05:12.252Z,669
2024-01-09T08:06:26.493Z,699
2024-01-09T08:08:54.976Z,763
2024-01-09T08:10:09.217Z,799
2024-01-09T08:11:23.459Z,772
2024-01-09T08:12:37.700Z,824
2024-01-09T08:13:51.941Z,844
2024-01-09T08:15:06.182Z,893
2024-01-09T08:16:20.424Z,911
2024-01-09T08:17:33.681Z,893
2024-01-09T08:18:47.922Z,932
2024-01-09T08:20:02.163Z,965
2024-01-09T08:21:16.405Z,1014
2024-01-09T08:22:30.646Z,985
2024-01-09T08:23:44.887Z,1017
2024-01-09T08:24:59.116Z,1089
2024-01-09T08:26:13.369Z,1071
2024-01-09T08:27:27.610Z,1175
2024-01-09T08:28:41.852Z,1171
2024-01-09T08:29:56.093Z,1200
2024-01-09T08:31:10.334Z,1263
2024-01-09T08:32:24.575Z,1274
2024-01-09T08:33:37.833Z,1296
2024-01-09T08:34:52.075Z,1302
2024-01-09T08:36:06.316Z,1339
2024-01-09T08:37:20.557Z,1409
2024-01-09T08:38:34.799Z,1391
2024-01-09T08:39:49.041Z,1483
2024-01-09T08:41:03.282Z,1479
2024-01-09T08:42:17.523Z,1535
2024-01-09T08:43:31.764Z,1440
2024-01-09T08:44:46.005Z,1512
2024-01-09T08:46:00.246Z,1477
2024-01-09T08:47:14.468Z,1504
2024-01-09T08:48:28.728Z,1595
2024-01-09T08:49:42.970Z,1641
2024-01-09T08:50:56.227Z,1599
2024-01-09T08:52:10.468Z,1615
2024-01-09T08:53:24.709Z,1602
2024-01-09T08:54:38.950Z,1572
2024-01-09T08:55:53.191Z,1563
2024-01-09T08:57:07.432Z,1649
2024-01-09T08:58:21.673Z,1644
2024-01-09T08:59:35.915Z,1614
2024-01-09T09:00:50.156Z,1528
2024-01-09T09:02:04.397Z,1561
2024-01-09T09:03:18.638Z,1495
2024-01-09T09:04:32.879Z,1668
2024-01-09T09:05:47.120Z,1659
2024-01-09T09:07:00.377Z,1535
2024-01-09T09:08:14.618Z,1588
2024-01-09T09:09:28.859Z,1681
2024-01-09T09:10:43.101Z,1611
2024-01-09T09:11:57.342Z,1533
2024-01-09T09:13:11.583Z,1737
2024-01-09T09:14:25.824Z,1660
2024-01-09T09:15:40.065Z,1742
2024-01-09T09:16:54.306Z,1706
2024-01-09T09:18:08.547Z,995
2024-01-09T09:19:22.799Z,11220
2024-01-09T09:20:37.040Z,7998
2024-01-09T09:21:51.281Z,79966
2024-01-09T09:23:04.537Z,79450
2024-01-09T09:24:18.778Z,80783
2024-01-09T09:25:33.019Z,78267
2024-01-09T09:26:47.260Z,77596
2024-01-09T09:28:01.500Z,77276
2024-01-09T09:29:14.761Z,78437
2024-01-09T09:30:29.001Z,78913
2024-01-09T09:31:43.241Z,79279
2024-01-09T09:32:57.480Z,80198
2024-01-09T09:34:11.720Z,79489
2024-01-09T09:35:25.960Z,78701
2024-01-09T09:36:40.200Z,77947
2024-01-09T09:37:54.439Z,79232
2024-01-09T09:39:08.660Z,79536
2024-01-09T09:40:22.919Z,79603
2024-01-09T09:41:37.159Z,78782
2024-01-09T09:42:51.398Z,78007
2024-01-09T09:44:05.638Z,79337
2024-01-09T09:45:18.893Z,78809
2024-01-09T09:46:33.132Z,79718
2024-01-09T09:47:47.371Z,78804
2024-01-09T09:49:01.610Z,81655
2024-01-09T09:50:15.849Z,80737
2024-01-09T09:51:30.088Z,80410
2024-01-09T09:52:44.327Z,80674
2024-01-09T09:53:58.566Z,79001
2024-01-09T09:55:12.805Z,78220
2024-01-09T09:56:27.044Z,77626
2024-01-09T09:57:41.283Z,79232
2024-01-09T09:58:55.522Z,80818
2024-01-09T10:00:09.761Z,82978
2024-01-09T10:01:23.016Z,80012
2024-01-09T10:02:37.254Z,79359
2024-01-09T10:03:51.493Z,77884
2024-01-09T10:05:05.732Z,78620
2024-01-09T10:06:19.972Z,79466
2024-01-09T10:07:34.211Z,78727
2024-01-09T10:08:48.449Z,78284
2024-01-09T10:10:02.688Z,77197
2024-01-09T10:11:16.928Z,77257
2024-01-09T10:12:31.167Z,76338
2024-01-09T10:13:45.406Z,76301
2024-01-09T10:14:59.645Z,77030
2024-01-09T10:16:13.884Z,78004
2024-01-09T10:17:27.139Z,77144
2024-01-09T10:18:41.378Z,76040
2024-01-09T10:19:55.617Z,75714
2024-01-09T10:21:09.857Z,75539
2024-01-09T10:22:24.096Z,69679
2024-01-09T10:23:38.335Z,18767
2024-01-09T10:24:52.574Z,5268
2024-01-09T10:26:06.812Z,2770
2024-01-09T10:27:21.052Z,2766
2024-01-09T10:28:35.291Z,2853
2024-01-09T10:29:49.531Z,2821
2024-01-09T10:31:03.770Z,2833
2024-01-09T10:32:18.010Z,2775
2024-01-09T10:33:32.250Z,2751
2024-01-09T10:34:45.505Z,2728
2024-01-09T10:35:59.745Z,2681
2024-01-09T10:37:13.985Z,2718
2024-01-09T10:38:28.225Z,2642
2024-01-09T10:39:42.464Z,2656
2024-01-09T10:40:56.704Z,2665
2024-01-09T10:42:10.943Z,2647
2024-01-09T10:43:25.183Z,2757
2024-01-09T10:44:39.423Z,2590
2024-01-09T10:45:53.663Z,2691
2024-01-09T10:47:07.903Z,2612
2024-01-09T10:48:22.144Z,2743
2024-01-09T10:49:36.384Z,2533
2024-01-09T10:50:49.641Z,2676
2024-01-09T10:52:03.881Z,2680
2024-01-09T10:53:18.121Z,2581
2024-01-09T10:54:32.362Z,2651
2024-01-09T10:55:46.602Z,2655
2024-01-09T10:57:00.842Z,2602
2024-01-09T10:58:15.083Z,2489
2024-01-09T10:59:29.324Z,2547
2024-01-09T11:00:43.564Z,2474
2024-01-09T11:01:57.805Z,2509
2024-01-09T11:03:12.045Z,2396
2024-01-09T11:04:26.286Z,2450
2024-01-09T11:05:40.526Z,2469
2024-01-09T11:06:53.782Z,2327
2024-01-09T11:08:08.023Z,2465
2024-01-09T11:09:22.263Z,2418
2024-01-09T11:10:36.504Z,2399
2024-01-09T11:11:50.745Z,2448
2024-01-09T11:13:04.985Z,2394
2024-01-09T11:14:19.226Z,2313
2024-01-09T11:15:33.466Z,2298
2024-01-09T11:16:47.707Z,2294
2024-01-09T11:18:01.947Z,2352
2024-01-09T11:19:16.188Z,2246
2024-01-09T11:20:30.429Z,2290
2024-01-09T11:21:44.665Z,2312
2024-01-09T11:22:57.927Z,2228
2024-01-09T11:24:12.167Z,2238
2024-01-09T11:25:26.408Z,2253
2024-01-09T11:26:40.648Z,2180
2024-01-09T11:27:54.889Z,2196
2024-01-09T11:29:09.129Z,2197
2024-01-09T11:30:23.370Z,2113
2024-01-09T11:31:37.611Z,2120
2024-01-09T11:32:51.852Z,2118
2024-01-09T11:34:06.084Z,2094
2024-01-09T11:35:20.329Z,2102
2024-01-09T11:36:34.573Z,2101
2024-01-09T11:37:48.814Z,2041
2024-01-09T11:39:02.070Z,2014
2024-01-09T11:40:16.311Z,1961
2024-01-09T11:41:30.551Z,1989
2024-01-09T11:42:44.792Z,2014
2024-01-09T11:43:59.033Z,1980
2024-01-09T11:45:13.274Z,2002
2024-01-09T11:46:27.514Z,1922
2024-01-09T11:47:41.755Z,1922
2024-01-09T11:48:55.995Z,1905
2024-01-09T11:50:10.236Z,1866
2024-01-09T11:51:24.477Z,1836
2024-01-09T11:52:38.717Z,1798
2024-01-09T11:53:52.958Z,1750
2024-01-09T11:55:06.215Z,1775
2024-01-09T11:56:20.455Z,1737
2024-01-09T11:57:34.696Z,1744
2024-01-09T11:58:48.936Z,1737
2024-01-09T12:00:03.168Z,1716
2024-01-09T12:01:17.418Z,1717
2024-01-09T12:02:31.658Z,1695
2024-01-09T12:03:45.899Z,1653
2024-01-09T12:05:00.140Z,1649
2024-01-09T12:06:14.370Z,1640
2024-01-09T12:07:28.621Z,1603
2024-01-09T12:08:42.861Z,1600
2024-01-09T12:09:57.103Z,1570
2024-01-09T12:11:10.360Z,1533
2024-01-09T12:12:24.600Z,1534
2024-01-09T12:13:38.841Z,1545
2024-01-09T12:14:53.078Z,1483
2024-01-09T12:16:07.305Z,1503
2024-01-09T12:17:21.563Z,1466
2024-01-09T12:18:35.803Z,1469
2024-01-09T12:19:50.044Z,1426
2024-01-09T12:21:04.284Z,1433
2024-01-09T12:22:18.511Z,1428
2024-01-09T12:23:32.766Z,1429
2024-01-09T12:24:47.007Z,1435
2024-01-09T12:26:01.245Z,1413
2024-01-09T12:27:14.504Z,1357
2024-01-09T12:28:28.737Z,1376
2024-01-09T12:29:42.971Z,1365
2024-01-09T12:30:57.225Z,1348
2024-01-09T12:32:11.466Z,1371
2024-01-09T12:33:25.707Z,1343
2024-01-09T12:34:39.947Z,1343
2024-01-09T12:35:54.188Z,1328
2024-01-09T12:37:08.421Z,1311
2024-01-09T12:38:22.665Z,1306
2024-01-09T12:39:36.910Z,1295
2024-01-09T12:40:51.148Z,1309
2024-01-09T12:42:05.391Z,1268
2024-01-09T12:43:18.647Z,1284
2024-01-09T12:44:32.888Z,1287
2024-01-09T12:45:47.128Z,1288
2024-01-09T12:47:01.369Z,1284
2024-01-09T12:48:15.610Z,1248
2024-01-09T12:49:29.850Z,1260
2024-01-09T12:50:44.091Z,1252
2024-01-09T12:51:58.325Z,1268
2024-01-09T12:53:12.566Z,1237
2024-01-09T12:54:26.812Z,1215
2024-01-09T12:55:41.053Z,1201
2024-01-09T12:56:55.294Z,1171
2024-01-09T12:58:09.534Z,1174
2024-01-09T12:59:22.791Z,1191
2024-01-09T13:00:37.031Z,1176
2024-01-09T13:01:51.272Z,1145
2024-01-09T13:03:05.513Z,1151
2024-01-09T13:04:19.754Z,1138
2024-01-09T13:05:33.992Z,1143
2024-01-09T13:06:48.230Z,1140
2024-01-09T13:08:02.476Z,1099
2024-01-09T13:09:16.716Z,1102
2024-01-09T13:10:30.957Z,1083
2024-01-09T13:11:45.197Z,1065
2024-01-09T13:12:59.438Z,1051
2024-01-09T13:14:13.678Z,1056
2024-01-09T13:15:26.935Z,1028
2024-01-09T13:16:41.175Z,1020
2024-01-09T13:17:55.402Z,1024
2024-01-09T13:19:09.656Z,1000
2024-01-09T13:20:23.897Z,977
2024-01-09T13:21:38.137Z,980
2024-01-09T13:22:52.378Z,972
2024-01-09T13:24:06.618Z,950
2024-01-09T13:25:20.859Z,946
2024-01-09T13:26:35.099Z,925
2024-01-09T13:27:49.340Z,917
2024-01-09T13:29:03.581Z,918
2024-01-09T13:30:17.822Z,911
2024-01-09T13:31:31.078Z,899
2024-01-09T13:32:45.319Z,893
2024-01-09T13:33:59.559Z,880
2024-01-09T13:35:13.800Z,867
2024-01-09T13:36:28.040Z,861
2024-01-09T13:37:41.302Z,853
2024-01-09T13:38:55.542Z,829
2024-01-09T13:40:09.766Z,826
2024-01-09T13:41:24.024Z,805
2024-01-09T13:42:38.265Z,806
2024-01-09T13:43:52.505Z,799
2024-01-09T13:45:06.746Z,795
2024-01-09T13:46:20.986Z,783
2024-01-09T13:47:35.227Z,773
2024-01-09T13:48:49.467Z,758
2024-01-09T13:50:03.708Z,757
2024-01-09T13:51:17.949Z,741
2024-01-09T13:52:32.189Z,729
2024-01-09T13:53:45.446Z,718
2024-01-09T13:54:59.686Z,713
2024-01-09T13:56:13.927Z,706
2024-01-09T13:57:28.167Z,696
2024-01-09T13:59:56.649Z,674
2024-01-09T14:01:10.889Z,666
2024-01-09T14:02:25.130Z,663
2024-01-09T14:03:39.371Z,647
2024-01-09T14:04:53.611Z,638
2024-01-09T14:06:07.852Z,619
2024-01-09T14:07:22.092Z,609
2024-01-09T14:08:36.333Z,604
2024-01-09T14:09:49.589Z,598
2024-01-09T14:11:03.830Z,590
2024-01-09T14:12:18.070Z,578
2024-01-09T14:13:32.311Z,570
2024-01-09T14:14:46.552Z,561
2024-01-09T14:16:00.792Z,556
2024-01-09T14:17:15.033Z,542
2024-01-09T14:18:29.273Z,533
2024-01-09T14:19:43.514Z,519
2024-01-09T14:20:57.755Z,509
2024-01-09T14:22:11.995Z,493
2024-01-09T14:23:26.236Z,486
2024-01-09T14:24:40.476Z,480
2024-01-09T14:25:53.733Z,466
2024-01-09T14:27:07.974Z,461
2024-01-09T14:28:22.214Z,451
2024-01-09T14:29:36.455Z,436
2024-01-09T14:30:50.695Z,430
2024-01-09T14:32:04.936Z,413
2024-01-09T14:33:19.176Z,407
2024-01-09T14:34:33.417Z,400
2024-01-09T14:35:47.658Z,387
2024-01-09T14:37:01.898Z,379
2024-01-09T14:38:16.139Z,367
2024-01-09T14:39:30.379Z,357
2024-01-09T14:40:44.620Z,350
2024-01-09T14:41:57.876Z,336
2024-01-09T14:43:12.117Z,331
2024-01-09T14:44:26.357Z,313
2024-01-09T14:45:40.598Z,304
2024-01-09T14:46:54.839Z,294
2024-01-09T14:48:09.080Z,281
2024-01-09T14:49:23.320Z,273
2024-01-09T14:50:37.561Z,267
2024-01-09T14:51:51.801Z,254
2024-01-09T14:53:06.042Z,248
2024-01-09T14:54:20.283Z,237
2024-01-09T14:55:34.524Z,225
2024-01-09T14:56:48.765Z,210
2024-01-09T14:58:02.022Z,203
2024-01-09T14:59:16.262Z,196
2024-01-09T15:00:30.503Z,189
2024-01-09T15:01:44.743Z,177
2024-01-09T15:02:58.984Z,167
2024-01-09T15:04:13.224Z,160
2024-01-09T15:05:27.451Z,151
2024-01-09T15:06:41.706Z,143
2024-01-09T15:07:55.932Z,130
2024-01-09T15:09:10.187Z,128
2024-01-09T15:10:24.418Z,120
2024-01-09T15:11:38.668Z,113
2024-01-09T15:12:52.903Z,105
2024-01-09T15:14:06.165Z,96
2024-01-09T15:15:20.406Z,91
2024-01-09T15:16:34.646Z,85
2024-01-09T15:17:48.872Z,79
2024-01-09T15:19:03.128Z,71
2024-01-09T15:20:17.369Z,64
2024-01-09T15:21:31.609Z,58
2024-01-09T15:22:45.850Z,56
2024-01-09T15:24:00.090Z,47
2024-01-09T15:25:14.331Z,43
2024-01-09T15:26:28.572Z,39
2024-01-09T15:27:42.813Z,34
2024-01-09T15:28:57.053Z,27
2024-01-09T15:30:10.310Z,29
2024-01-09T15:31:24.551Z,27
2024-01-09T15:32:38.791Z,19
2024-01-09T15:33:53.032Z,17
2024-01-09T15:35:07.266Z,15
2024-01-09T15:36:21.513Z,15
2024-01-09T15:37:35.754Z,11
2024-01-09T15:38:49.995Z,11
2024-01-09T15:40:04.233Z,8
2024-01-09T15:41:18.476Z,5
2024-01-09T15:42:32.716Z,3
2024-01-09T15:43:46.957Z,6
2024-01-09T15:45:01.198Z,6
2024-01-09T15:46:14.454Z,6
2024-01-09T15:47:28.695Z,2
2024-01-09T15:48:42.936Z,1
2024-01-09T15:49:57.177Z,2
2024-01-09T15:51:11.417Z,2
2024-01-09T15:52:25.712Z,0
2024-01-09T15:53:39.963Z,1
2024-01-09T15:54:54.204Z,1
2024-01-09T15:56:08.445Z,1
2024-01-09T15:57:22.739Z,0
2024-01-09T15:58:37.034Z,0
2024-01-09T15:59:51.329Z,0
2024-01-09T16:01:05.624Z,0
2024-01-09T16:02:18.935Z,0
2024-01-09T16:03:33.229Z,0
2024-01-09T16:04:47.524Z,0
2024-01-09T16:06:01.819Z,0
2024-01-09T16:07:16.113Z,0
2024-01-09T16:08:30.408Z,0
2024-01-09T16:09:44.703Z,0
2024-01-09T16:10:58.998Z,0
2024-01-09T16:12:13.292Z,0
2024-01-09T16:13:27.587Z,0
2024-01-09T16:14:41.882Z,0
2024-01-09T16:15:56.177Z,0
2024-01-09T16:17:10.471Z,0
2024-01-09T16:18:23.782Z,0
2024-01-09T16:19:38.072Z,0
2024-01-09T16:20:52.371Z,0
2024-01-09T16:22:06.649Z,0
2024-01-09T16:23:20.961Z,0
2024-01-09T16:24:35.256Z,0
2024-01-09T16:25:49.550Z,0
2024-01-09T16:27:03.834Z,0
2024-01-09T16:28:18.140Z,0
2024-01-09T16:29:32.434Z,0
2024-01-09T16:30:46.729Z,0
2024-01-09T16:32:01.024Z,0
2024-01-09T16:33:15.319Z,0
2024-01-09T16:34:28.628Z,0
2024-01-09T16:35:42.924Z,0
2024-01-09T16:36:57.219Z,0
2024-01-09T16:38:11.513Z,0
2024-01-09T16:39:25.808Z,0
2024-01-09T16:41:54.397Z,0
2024-01-09T16:43:08.692Z,0
2024-01-09T16:44:22.987Z,0
2024-01-09T16:45:37.282Z,0
2024-01-09T16:46:51.576Z,0
2024-01-09T16:48:05.871Z,0
2024-01-09T16:49:20.166Z,0
2024-01-09T16:50:33.476Z,0
2024-01-09T16:51:47.771Z,0
2024-01-09T16:53:02.067Z,0
2024-01-09T16:54:16.362Z,0
2024-01-09T16:55:30.656Z,0
2024-01-09T16:56:44.951Z,0
2024-01-09T16:57:59.246Z,0
2024-01-09T16:59:13.540Z,0
2024-01-09T17:00:27.835Z,0
2024-01-09T17:01:42.130Z,0
2024-01-09T17:02:56.424Z,0
2024-01-09T17:04:10.719Z,0
2024-01-09T17:05:25.014Z,0
2024-01-09T17:06:38.325Z,0
2024-01-09T17:07:52.619Z,0
2024-01-09T17:09:06.914Z,0
2024-01-09T17:10:21.209Z,0
2024-01-09T17:11:35.501Z,0
2024-01-09T17:12:49.798Z,0
2024-01-09T17:14:04.093Z,0
2024-01-09T17:15:18.388Z,0
2024-01-09T17:16:32.683Z,0
2024-01-09T17:17:46.977Z,0
2024-01-09T17:19:01.274Z,0
2024-01-09T17:20:15.567Z,0
2024-01-09T17:21:29.859Z,0
2024-01-09T17:22:43.172Z,0
2024-01-09T17:23:57.467Z,0
2024-01-09T17:25:11.761Z,0
2024-01-09T17:26:26.057Z,0
2024-01-09T17:27:40.351Z,0
2024-01-09T17:28:54.646Z,0
2024-01-09T17:30:08.941Z,0
2024-01-09T17:31:23.235Z,0
2024-01-09T17:32:37.530Z,0
2024-01-09T17:33:51.825Z,0